Time;durP1;ratioP1;P1;durP2;ratioP2;P2;SDS_P1;SDS_P2;PMS_P1;PMS_P2;Temp;Humidity;BMP_temperature;BMP_pressure;BME280_temperature;BME280_humidity;BME280_pressure;Samples;Min_cycle;Max_cycle;Signal;HPM_P1;HPM_P2
2021/12/17 00:05:18;;;;;;;42.08;20.98;;;;;;;;;;5068702;28;20045;-73
2021/12/17 00:07:15;;;;;;;31.80;17.88;;;;;;;;;;5060565;28;20044;-73
2021/12/17 00:09:41;;;;;;;37.58;20.48;;;;;;;;;;5098445;28;20379;-73
2021/12/17 00:12:10;;;;;;;39.40;21.92;;;;;;;;;;5068821;28;20048;-72
2021/12/17 00:14:38;;;;;;;34.05;21.48;;;;;;;;;;5070097;28;20529;-73
2021/12/17 00:17:08;;;;;;;33.58;19.52;;;;;;;;;;5066981;28;20071;-73
2021/12/17 00:49:22;;;;;;;30.67;19.23;;;;;;;;;;5068804;28;20074;-73
2021/12/17 00:52:02;;;;;;;34.97;19.38;;;;;;;;;;5098527;28;20061;-73
2021/12/17 00:54:37;;;;;;;29.20;17.80;;;;;;;;;;5060617;28;20072;-73
2021/12/17 00:57:07;;;;;;;31.00;19.95;;;;;;;;;;5067124;28;20648;-73
2021/12/17 00:59:33;;;;;;;36.00;22.33;;;;;;;;;;5067397;28;20464;-73
2021/12/17 01:02:01;;;;;;;29.85;19.88;;;;;;;;;;5065973;28;20044;-73
2021/12/17 01:04:28;;;;;;;31.80;18.90;;;;;;;;;;5071583;28;20040;-73
2021/12/17 01:06:54;;;;;;;29.98;18.73;;;;;;;;;;5067417;28;20091;-73
2021/12/17 01:09:22;;;;;;;31.48;20.98;;;;;;;;;;5067997;28;20044;-73
2021/12/17 01:11:49;;;;;;;31.05;19.52;;;;;;;;;;5068578;28;20929;-73
2021/12/17 01:14:15;;;;;;;29.00;19.38;;;;;;;;;;5067434;28;20037;-73
2021/12/17 01:16:41;;;;;;;31.30;20.20;;;;;;;;;;5063602;28;20032;-74
2021/12/17 01:42:52;;;;;;;29.75;19.48;;;;;;;;;;5065307;28;20052;-73
2021/12/17 01:45:18;;;;;;;21.83;15.82;;;;;;;;;;5067726;28;20057;-73
2021/12/17 01:47:44;;;;;;;25.80;17.27;;;;;;;;;;5065762;28;20117;-73
2021/12/17 01:55:51;;;;;;;26.85;17.45;;;;;;;;;;5067310;28;20040;-73
2021/12/17 02:01:05;;;;;;;26.02;15.95;;;;;;;;;;5064589;28;20040;-73
2021/12/17 02:03:31;;;;;;;28.33;15.70;;;;;;;;;;5066398;28;20040;-73
2021/12/17 02:05:59;;;;;;;26.75;17.67;;;;;;;;;;5066481;28;20565;-73
2021/12/17 02:08:26;;;;;;;31.42;18.38;;;;;;;;;;5069438;28;20124;-73
2021/12/17 02:11:31;;;;;;;20.75;16.17;;;;;;;;;;5067814;28;20048;-74
2021/12/17 02:32:42;;;;;;;30.05;18.20;;;;;;;;;;5064863;28;20059;-72
2021/12/17 02:37:40;;;;;;;30.30;15.27;;;;;;;;;;5066779;28;20059;-73
2021/12/17 02:47:44;;;;;;;26.08;14.68;;;;;;;;;;5061677;28;20098;-73
2021/12/17 02:50:12;;;;;;;18.98;12.32;;;;;;;;;;5098642;28;20044;-73
2021/12/17 02:52:39;;;;;;;24.00;16.50;;;;;;;;;;5067850;28;20394;-73
2021/12/17 02:55:06;;;;;;;25.10;14.93;;;;;;;;;;5065569;28;20039;-72
2021/12/17 02:57:33;;;;;;;28.50;16.30;;;;;;;;;;5059774;28;20036;-73
2021/12/17 02:59:59;;;;;;;26.90;16.33;;;;;;;;;;5097286;28;20043;-73
2021/12/17 03:02:29;;;;;;;23.92;15.55;;;;;;;;;;5065459;28;20044;-73
2021/12/17 03:04:55;;;;;;;27.23;17.10;;;;;;;;;;5065898;28;20047;-73
2021/12/17 03:07:21;;;;;;;26.80;17.48;;;;;;;;;;5064082;28;20033;-73
2021/12/17 03:10:03;;;;;;;24.33;16.48;;;;;;;;;;5064306;28;20109;-73
2021/12/17 03:12:36;;;;;;;26.60;15.65;;;;;;;;;;5067822;28;20046;-73
2021/12/17 03:15:13;;;;;;;32.70;17.02;;;;;;;;;;5067592;28;20520;-73
2021/12/17 03:18:19;;;;;;;25.30;16.40;;;;;;;;;;5068977;28;20577;-73
2021/12/17 03:23:39;;;;;;;26.27;16.15;;;;;;;;;;5075142;28;20109;-73
2021/12/17 03:26:07;;;;;;;29.85;17.55;;;;;;;;;;5069571;28;20397;-73
2021/12/17 03:28:33;;;;;;;30.13;18.85;;;;;;;;;;5063494;28;20304;-73
2021/12/17 03:31:01;;;;;;;28.50;16.60;;;;;;;;;;5069054;28;20040;-74
2021/12/17 03:33:27;;;;;;;27.48;18.15;;;;;;;;;;5066059;28;20072;-73
2021/12/17 03:35:53;;;;;;;23.92;15.75;;;;;;;;;;5072731;28;20513;-73
2021/12/17 03:38:20;;;;;;;31.40;18.05;;;;;;;;;;5072753;28;20106;-73
2021/12/17 03:40:47;;;;;;;29.60;17.83;;;;;;;;;;5067352;28;20045;-73
2021/12/17 03:43:21;;;;;;;24.08;15.40;;;;;;;;;;5063046;28;20040;-73
2021/12/17 03:45:47;;;;;;;26.90;17.48;;;;;;;;;;5063453;28;20044;-74
2021/12/17 03:48:13;;;;;;;33.67;18.00;;;;;;;;;;5069683;28;20034;-73
2021/12/17 03:50:39;;;;;;;34.65;20.50;;;;;;;;;;5068575;28;20041;-73
2021/12/17 03:53:07;;;;;;;24.52;15.43;;;;;;;;;;5071741;28;20048;-73
2021/12/17 03:55:34;;;;;;;26.65;16.08;;;;;;;;;;5065919;28;20060;-73
2021/12/17 03:58:00;;;;;;;26.20;16.15;;;;;;;;;;5069751;28;20059;-73
2021/12/17 04:00:27;;;;;;;25.27;17.23;;;;;;;;;;5067963;28;20409;-73
2021/12/17 04:02:53;;;;;;;31.27;18.98;;;;;;;;;;5061149;28;20036;-73
2021/12/17 04:05:19;;;;;;;22.85;13.98;;;;;;;;;;5064255;28;20068;-73
2021/12/17 04:07:45;;;;;;;30.77;18.08;;;;;;;;;;5070710;28;20036;-74
2021/12/17 04:10:13;;;;;;;30.25;14.02;;;;;;;;;;5066443;28;20524;-73
2021/12/17 04:15:07;;;;;;;29.95;17.25;;;;;;;;;;5065726;28;20113;-73
2021/12/17 04:17:43;;;;;;;35.17;18.95;;;;;;;;;;5065289;28;20120;-73
2021/12/17 04:20:11;;;;;;;31.25;15.38;;;;;;;;;;5070654;28;20076;-73
2021/12/17 04:22:37;;;;;;;26.67;15.70;;;;;;;;;;5083514;28;20041;-73
2021/12/17 04:25:03;;;;;;;28.92;16.48;;;;;;;;;;5065652;28;20025;-73
2021/12/17 04:27:29;;;;;;;31.55;16.05;;;;;;;;;;5066234;28;20033;-74
2021/12/17 04:29:57;;;;;;;29.02;16.98;;;;;;;;;;5063818;28;20064;-73
2021/12/17 04:32:23;;;;;;;25.75;16.23;;;;;;;;;;5068796;28;20192;-74
2021/12/17 04:34:50;;;;;;;34.72;19.58;;;;;;;;;;5064007;28;20053;-73
2021/12/17 04:37:16;;;;;;;35.30;18.80;;;;;;;;;;5063530;28;20111;-74
2021/12/17 04:39:42;;;;;;;29.40;15.07;;;;;;;;;;5070388;28;20429;-73
2021/12/17 04:42:40;;;;;;;30.92;15.55;;;;;;;;;;5052117;28;20174;-73
2021/12/17 04:44:57;;;;;;;29.15;15.25;;;;;;;;;;5061531;28;20093;-74
2021/12/17 04:58:23;;;;;;;31.35;17.30;;;;;;;;;;5066280;28;20060;-73
2021/12/17 05:00:49;;;;;;;32.40;17.35;;;;;;;;;;5083379;28;20052;-73
2021/12/17 05:03:15;;;;;;;31.27;17.15;;;;;;;;;;5067381;28;20072;-73
2021/12/17 05:05:41;;;;;;;26.90;13.60;;;;;;;;;;5065852;28;20131;-73
2021/12/17 05:08:13;;;;;;;30.00;16.33;;;;;;;;;;5068887;28;20252;-73
2021/12/17 05:21:46;;;;;;;27.15;14.88;;;;;;;;;;5063841;28;20045;-73
2021/12/17 05:24:12;;;;;;;32.72;15.55;;;;;;;;;;5061449;28;20512;-73
2021/12/17 05:26:38;;;;;;;25.90;16.60;;;;;;;;;;5066700;28;20040;-73
2021/12/17 05:29:04;;;;;;;30.90;16.40;;;;;;;;;;5066641;28;20044;-73
2021/12/17 05:31:30;;;;;;;23.27;14.18;;;;;;;;;;5069304;28;20060;-73
2021/12/17 05:33:56;;;;;;;34.45;17.17;;;;;;;;;;5064871;28;20155;-73
2021/12/17 05:36:23;;;;;;;31.85;16.92;;;;;;;;;;5051608;28;20123;-73
2021/12/17 05:38:49;;;;;;;29.90;16.35;;;;;;;;;;5067823;28;20051;-73
2021/12/17 05:41:15;;;;;;;30.35;15.88;;;;;;;;;;5097747;28;20037;-73
2021/12/17 05:43:42;;;;;;;28.70;15.02;;;;;;;;;;5049401;28;20478;-73
2021/12/17 05:46:11;;;;;;;33.95;16.88;;;;;;;;;;5068037;28;20044;-73
2021/12/17 05:48:37;;;;;;;30.05;16.02;;;;;;;;;;5097392;27;20060;-73
2021/12/17 05:51:04;;;;;;;29.13;13.65;;;;;;;;;;5076915;28;20039;-73
2021/12/17 05:53:32;;;;;;;24.02;11.68;;;;;;;;;;5046874;28;20057;-73
2021/12/17 05:55:58;;;;;;;21.42;12.32;;;;;;;;;;5058190;28;20513;-73
2021/12/17 05:58:25;;;;;;;27.05;14.77;;;;;;;;;;5067107;28;20336;-73
2021/12/17 06:00:51;;;;;;;26.80;15.50;;;;;;;;;;5063784;28;20044;-73
2021/12/17 06:03:18;;;;;;;28.58;13.32;;;;;;;;;;5061097;28;20059;-73
2021/12/17 06:05:44;;;;;;;26.30;14.05;;;;;;;;;;5069059;28;20442;-73
2021/12/17 06:08:11;;;;;;;28.02;15.23;;;;;;;;;;5064665;28;20029;-74
2021/12/17 06:10:37;;;;;;;18.90;13.32;;;;;;;;;;5065581;28;20490;-73
2021/12/17 06:13:03;;;;;;;22.98;13.77;;;;;;;;;;5064216;28;20526;-73
2021/12/17 06:15:29;;;;;;;25.50;13.95;;;;;;;;;;5058482;28;20040;-73
2021/12/17 06:17:56;;;;;;;29.70;13.90;;;;;;;;;;5066731;28;20061;-73
2021/12/17 06:20:24;;;;;;;30.50;15.45;;;;;;;;;;5069087;28;20043;-73
2021/12/17 06:22:50;;;;;;;26.25;14.82;;;;;;;;;;5064282;28;20045;-73
2021/12/17 06:25:17;;;;;;;26.13;13.07;;;;;;;;;;5065881;28;20567;-73
2021/12/17 06:27:43;;;;;;;29.45;15.20;;;;;;;;;;5066937;28;20450;-73
2021/12/17 06:30:11;;;;;;;25.85;14.77;;;;;;;;;;5058675;28;20040;-73
2021/12/17 06:32:37;;;;;;;30.23;18.55;;;;;;;;;;5065925;28;20080;-73
2021/12/17 06:35:05;;;;;;;23.70;13.77;;;;;;;;;;5061752;28;20085;-73
2021/12/17 06:37:31;;;;;;;29.15;15.75;;;;;;;;;;5090970;28;20129;-73
2021/12/17 06:39:58;;;;;;;25.38;14.85;;;;;;;;;;5063840;28;20079;-73
2021/12/17 06:42:26;;;;;;;23.95;14.88;;;;;;;;;;5067748;28;20044;-73
2021/12/17 06:44:56;;;;;;;21.80;12.48;;;;;;;;;;5062028;28;20041;-73
2021/12/17 06:47:31;;;;;;;33.45;18.30;;;;;;;;;;5060244;28;20091;-73
2021/12/17 06:50:01;;;;;;;32.63;15.90;;;;;;;;;;5068820;28;20036;-73
2021/12/17 07:06:02;;;;;;;35.78;20.30;;;;;;;;;;5098834;27;20060;-73
2021/12/17 07:11:32;;;;;;;32.88;16.88;;;;;;;;;;5064813;28;20048;-73
2021/12/17 07:22:45;;;;;;;28.42;15.38;;;;;;;;;;5070540;28;20068;-73
2021/12/17 07:33:16;;;;;;;26.23;14.27;;;;;;;;;;5070469;28;20087;-73
2021/12/17 07:35:53;;;;;;;35.97;18.02;;;;;;;;;;5067219;28;20388;-73
2021/12/17 07:38:38;;;;;;;31.05;15.60;;;;;;;;;;5096459;28;20067;-73
2021/12/17 07:41:05;;;;;;;27.98;15.85;;;;;;;;;;5065763;28;20134;-73
2021/12/17 07:46:01;;;;;;;31.48;15.57;;;;;;;;;;5062099;28;20044;-73
2021/12/17 07:48:27;;;;;;;32.25;16.02;;;;;;;;;;5076855;28;20386;-73
2021/12/17 07:50:53;;;;;;;33.63;16.17;;;;;;;;;;5068510;28;20036;-73
2021/12/17 07:53:20;;;;;;;23.58;12.70;;;;;;;;;;5068471;28;20044;-73
2021/12/17 07:55:46;;;;;;;29.60;15.05;;;;;;;;;;5071462;28;20367;-73
2021/12/17 07:58:13;;;;;;;36.13;19.30;;;;;;;;;;5071042;28;20048;-73
2021/12/17 08:00:39;;;;;;;39.58;17.00;;;;;;;;;;5058106;28;20041;-73
2021/12/17 08:03:05;;;;;;;29.75;15.48;;;;;;;;;;5071692;28;20523;-73
2021/12/17 08:05:31;;;;;;;29.90;14.95;;;;;;;;;;5066539;28;20036;-73
2021/12/17 08:07:57;;;;;;;22.33;13.10;;;;;;;;;;5061649;28;20247;-73
2021/12/17 08:10:24;;;;;;;26.13;13.65;;;;;;;;;;5071585;28;20052;-72
2021/12/17 08:12:54;;;;;;;22.67;12.13;;;;;;;;;;5068731;28;20344;-73
2021/12/17 08:15:24;;;;;;;25.38;13.07;;;;;;;;;;5067535;28;20047;-73
2021/12/17 08:18:47;;;;;;;23.30;13.45;;;;;;;;;;5068986;28;20048;-73
2021/12/17 08:24:12;;;;;;;23.95;12.52;;;;;;;;;;5066321;28;20175;-72
2021/12/17 08:26:38;;;;;;;24.98;13.18;;;;;;;;;;5089258;27;20076;-73
2021/12/17 08:31:32;;;;;;;20.10;11.23;;;;;;;;;;5065609;28;20084;-73
2021/12/17 08:33:58;;;;;;;19.38;11.68;;;;;;;;;;5065257;28;20418;-73
2021/12/17 08:36:25;;;;;;;23.50;12.70;;;;;;;;;;5068637;28;20131;-73
2021/12/17 08:38:51;;;;;;;20.60;11.63;;;;;;;;;;5065931;28;20048;-72
2021/12/17 08:41:19;;;;;;;21.58;12.10;;;;;;;;;;5067878;28;20041;-72
2021/12/17 08:43:45;;;;;;;19.52;12.38;;;;;;;;;;5099987;27;20486;-73
2021/12/17 08:46:12;;;;;;;19.38;11.48;;;;;;;;;;5061232;28;20033;-73
2021/12/17 08:48:38;;;;;;;21.08;11.77;;;;;;;;;;5061751;28;20056;-73
2021/12/17 08:51:06;;;;;;;19.10;11.55;;;;;;;;;;5066766;28;20086;-73
2021/12/17 08:53:33;;;;;;;23.75;14.02;;;;;;;;;;5097290;28;20047;-73
2021/12/17 08:56:00;;;;;;;19.60;11.60;;;;;;;;;;5068678;28;20469;-73
2021/12/17 08:58:26;;;;;;;21.85;11.20;;;;;;;;;;5067774;28;20100;-73
2021/12/17 09:00:52;;;;;;;14.68;10.68;;;;;;;;;;5066999;28;20032;-72
2021/12/17 09:03:18;;;;;;;20.58;10.60;;;;;;;;;;5063875;28;20044;-73
2021/12/17 09:05:45;;;;;;;19.27;11.55;;;;;;;;;;5100554;28;20501;-73
2021/12/17 09:08:12;;;;;;;22.38;12.10;;;;;;;;;;5066577;28;20075;-73
2021/12/17 09:10:38;;;;;;;18.58;10.43;;;;;;;;;;5070675;28;20505;-73
2021/12/17 09:13:05;;;;;;;21.65;12.57;;;;;;;;;;5065450;28;20602;-73
2021/12/17 09:15:32;;;;;;;22.25;12.95;;;;;;;;;;5067624;28;20196;-73
2021/12/17 09:17:58;;;;;;;28.00;13.55;;;;;;;;;;5068777;28;20043;-73
2021/12/17 09:20:24;;;;;;;24.92;13.20;;;;;;;;;;5065433;28;20063;-73
2021/12/17 09:22:51;;;;;;;21.38;11.25;;;;;;;;;;5069543;28;20050;-73
2021/12/17 09:25:17;;;;;;;24.00;11.20;;;;;;;;;;5069993;28;20561;-72
2021/12/17 09:27:43;;;;;;;20.65;13.00;;;;;;;;;;5068041;28;20040;-72
2021/12/17 09:30:11;;;;;;;18.05;11.70;;;;;;;;;;5069135;28;20110;-73
2021/12/17 09:32:39;;;;;;;25.20;13.40;;;;;;;;;;5064751;28;20135;-73
2021/12/17 09:35:06;;;;;;;21.13;12.32;;;;;;;;;;5066155;28;20164;-73
2021/12/17 09:37:32;;;;;;;20.90;11.60;;;;;;;;;;5066990;28;20086;-73
2021/12/17 09:39:58;;;;;;;17.80;12.30;;;;;;;;;;5069776;28;20046;-73
2021/12/17 09:42:25;;;;;;;22.02;11.98;;;;;;;;;;5066954;28;20401;-73
2021/12/17 09:44:51;;;;;;;23.85;13.25;;;;;;;;;;5065131;28;20051;-73
2021/12/17 09:47:17;;;;;;;24.88;13.07;;;;;;;;;;5067826;28;20040;-72
2021/12/17 09:49:45;;;;;;;20.90;12.93;;;;;;;;;;5064127;28;20033;-73
2021/12/17 09:52:11;;;;;;;18.75;11.63;;;;;;;;;;5062051;28;20080;-72
2021/12/17 09:54:38;;;;;;;23.38;11.93;;;;;;;;;;5067917;28;20640;-73
2021/12/17 09:57:04;;;;;;;22.38;12.60;;;;;;;;;;5066569;28;20045;-72
2021/12/17 09:59:31;;;;;;;17.70;11.93;;;;;;;;;;5067077;28;20135;-72
2021/12/17 10:01:57;;;;;;;24.15;12.43;;;;;;;;;;5065475;28;20044;-73
2021/12/17 10:04:27;;;;;;;15.68;10.25;;;;;;;;;;5066881;28;20070;-73
2021/12/17 10:06:53;;;;;;;21.17;11.43;;;;;;;;;;5068749;28;20032;-73
2021/12/17 10:09:19;;;;;;;20.52;10.40;;;;;;;;;;5049437;28;20044;-73
2021/12/17 10:12:06;;;;;;;22.98;11.13;;;;;;;;;;5066537;28;20047;-73
2021/12/17 10:14:33;;;;;;;17.02;11.48;;;;;;;;;;5066848;28;20142;-72
2021/12/17 10:17:10;;;;;;;21.02;10.43;;;;;;;;;;5064350;28;20131;-73
2021/12/17 10:19:44;;;;;;;18.90;10.50;;;;;;;;;;5064961;28;20485;-73
2021/12/17 10:22:11;;;;;;;14.27;9.80;;;;;;;;;;5066424;28;20056;-72
2021/12/17 10:24:38;;;;;;;13.75;9.20;;;;;;;;;;5064537;28;20033;-73
2021/12/17 10:27:25;;;;;;;15.18;8.57;;;;;;;;;;5067162;28;20123;-73
2021/12/17 10:29:52;;;;;;;16.30;8.85;;;;;;;;;;5064567;28;20100;-73
2021/12/17 10:32:19;;;;;;;14.02;8.68;;;;;;;;;;5069399;28;20063;-72
2021/12/17 10:35:04;;;;;;;12.23;8.32;;;;;;;;;;5064061;28;20076;-73
2021/12/17 10:37:38;;;;;;;11.80;7.78;;;;;;;;;;5099418;28;20728;-72
2021/12/17 10:40:18;;;;;;;13.43;7.55;;;;;;;;;;5066664;28;20048;-72
2021/12/17 10:42:52;;;;;;;14.18;8.15;;;;;;;;;;5069763;28;20450;-73
2021/12/17 10:45:25;;;;;;;12.25;6.50;;;;;;;;;;5064799;28;20048;-73
2021/12/17 10:47:57;;;;;;;;;;;;;;;;;;5067802;28;20037;-73
2021/12/17 10:50:24;;;;;;;10.43;6.00;;;;;;;;;;5064290;28;19916;-73
2021/12/17 10:52:56;;;;;;;9.57;6.28;;;;;;;;;;5059745;28;20131;-72
2021/12/17 10:55:23;;;;;;;7.75;6.40;;;;;;;;;;5062786;28;20052;-73
2021/12/17 10:57:50;;;;;;;11.70;7.05;;;;;;;;;;5065341;28;20139;-73
2021/12/17 11:00:17;;;;;;;8.73;5.95;;;;;;;;;;5065272;28;20047;-73
2021/12/17 11:02:51;;;;;;;10.32;6.30;;;;;;;;;;5051067;28;20098;-73
2021/12/17 11:05:18;;;;;;;7.28;5.57;;;;;;;;;;5061052;28;20040;-73
2021/12/17 11:07:47;;;;;;;7.15;5.75;;;;;;;;;;5066024;28;20133;-73
2021/12/17 11:10:15;;;;;;;8.75;5.97;;;;;;;;;;5066648;28;20040;-73
2021/12/17 11:12:46;;;;;;;7.60;5.63;;;;;;;;;;5065794;28;20059;-73
2021/12/17 11:15:14;;;;;;;7.45;6.07;;;;;;;;;;5065419;28;20047;-73
2021/12/17 11:17:42;;;;;;;9.93;6.25;;;;;;;;;;5065808;28;20036;-72
2021/12/17 11:20:10;;;;;;;8.38;5.85;;;;;;;;;;5059999;28;20047;-73
2021/12/17 11:22:37;;;;;;;8.75;6.43;;;;;;;;;;5067058;28;20141;-73
2021/12/17 11:25:03;;;;;;;7.70;5.53;;;;;;;;;;5062909;28;20123;-73
2021/12/17 11:27:30;;;;;;;6.82;6.13;;;;;;;;;;5066831;28;20493;-73
2021/12/17 11:29:56;;;;;;;7.35;5.35;;;;;;;;;;5065758;28;20579;-73
2021/12/17 11:32:22;;;;;;;7.70;6.00;;;;;;;;;;5049765;28;20525;-73
2021/12/17 11:34:49;;;;;;;8.40;5.43;;;;;;;;;;5066275;28;20062;-73
2021/12/17 11:37:15;;;;;;;7.03;5.35;;;;;;;;;;5071456;28;20082;-73
2021/12/17 11:39:44;;;;;;;8.23;5.93;;;;;;;;;;5097368;27;20542;-72
2021/12/17 11:42:24;;;;;;;7.72;5.60;;;;;;;;;;5069579;28;20478;-73
2021/12/17 11:45:23;;;;;;;7.50;5.35;;;;;;;;;;5069918;28;20428;-73
2021/12/17 11:47:41;;;;;;;10.18;5.30;;;;;;;;;;5067799;28;20084;-73
2021/12/17 11:50:08;;;;;;;6.57;5.53;;;;;;;;;;5066726;28;20145;-72
2021/12/17 11:52:34;;;;;;;9.40;6.10;;;;;;;;;;5062700;28;20040;-73
2021/12/17 11:55:24;;;;;;;8.85;6.15;;;;;;;;;;5067496;28;20090;-73
2021/12/17 11:57:52;;;;;;;7.50;5.85;;;;;;;;;;5092758;28;20044;-73
2021/12/17 12:00:22;;;;;;;8.15;5.97;;;;;;;;;;5071412;28;20441;-73
2021/12/17 12:02:49;;;;;;;9.00;6.63;;;;;;;;;;5066845;28;20440;-72
2021/12/17 12:05:35;;;;;;;10.73;7.68;;;;;;;;;;5065621;28;20386;-73
2021/12/17 12:08:19;;;;;;;9.57;6.22;;;;;;;;;;5069053;28;20068;-73
2021/12/17 12:11:02;;;;;;;12.65;7.38;;;;;;;;;;5067984;28;20036;-73
2021/12/17 12:13:35;;;;;;;8.53;7.13;;;;;;;;;;5068194;28;20492;-73
2021/12/17 12:16:03;;;;;;;8.73;6.13;;;;;;;;;;5068452;28;20305;-73
2021/12/17 12:18:39;;;;;;;11.25;7.03;;;;;;;;;;5071869;28;20047;-73
2021/12/17 12:21:05;;;;;;;9.18;7.13;;;;;;;;;;5095418;28;20036;-73
2021/12/17 12:23:32;;;;;;;9.90;7.38;;;;;;;;;;5059211;28;20067;-73
2021/12/17 12:28:45;;;;;;;10.30;7.23;;;;;;;;;;5067199;28;20048;-73
2021/12/17 12:31:12;;;;;;;10.07;7.72;;;;;;;;;;5067368;28;20325;-73
2021/12/17 12:33:58;;;;;;;10.43;7.28;;;;;;;;;;5072734;28;20060;-73
2021/12/17 12:36:43;;;;;;;9.23;7.05;;;;;;;;;;5065894;28;20132;-73
2021/12/17 12:39:17;;;;;;;11.15;8.00;;;;;;;;;;5068803;28;20371;-73
2021/12/17 12:41:49;;;;;;;9.27;6.80;;;;;;;;;;5070167;28;20314;-73
2021/12/17 12:44:16;;;;;;;11.77;8.02;;;;;;;;;;5068015;28;20036;-73
2021/12/17 12:46:53;;;;;;;10.38;6.97;;;;;;;;;;5067298;28;20123;-73
2021/12/17 12:49:37;;;;;;;12.95;8.35;;;;;;;;;;5072631;28;20040;-73
2021/12/17 12:52:21;;;;;;;11.13;7.72;;;;;;;;;;5069243;28;20778;-73
2021/12/17 12:54:51;;;;;;;10.02;7.32;;;;;;;;;;5062467;28;20044;-73
2021/12/17 12:57:24;;;;;;;13.35;7.10;;;;;;;;;;5068202;28;20052;-73
2021/12/17 12:59:55;;;;;;;7.13;6.07;;;;;;;;;;5068166;28;20209;-73
2021/12/17 13:02:21;;;;;;;11.40;6.97;;;;;;;;;;5067344;28;20509;-73
2021/12/17 13:04:47;;;;;;;8.35;6.40;;;;;;;;;;5064374;28;20133;-74
2021/12/17 13:07:14;;;;;;;8.93;6.43;;;;;;;;;;5068213;28;20045;-73
2021/12/17 13:09:44;;;;;;;10.15;6.93;;;;;;;;;;5068877;28;20127;-73
2021/12/17 13:12:11;;;;;;;7.68;5.28;;;;;;;;;;5069139;28;20127;-73
2021/12/17 13:14:43;;;;;;;7.55;5.10;;;;;;;;;;5068182;28;20040;-74
2021/12/17 13:17:41;;;;;;;8.02;5.05;;;;;;;;;;5061223;28;20086;-72
2021/12/17 13:20:40;;;;;;;5.97;4.63;;;;;;;;;;5070849;28;20048;-72
2021/12/17 13:22:57;;;;;;;5.85;4.25;;;;;;;;;;5066941;28;20056;-73
2021/12/17 13:25:27;;;;;;;6.03;4.22;;;;;;;;;;5066052;28;20033;-73
2021/12/17 13:27:54;;;;;;;7.05;4.78;;;;;;;;;;5096249;27;20111;-73
2021/12/17 13:30:24;;;;;;;6.43;4.57;;;;;;;;;;5069058;28;20056;-73
2021/12/17 13:32:51;;;;;;;6.80;4.30;;;;;;;;;;5065847;28;20064;-73
2021/12/17 13:35:18;;;;;;;5.20;3.38;;;;;;;;;;5063633;28;20543;-73
2021/12/17 13:37:44;;;;;;;5.85;3.67;;;;;;;;;;5067021;28;20123;-73
2021/12/17 13:40:11;;;;;;;6.00;3.67;;;;;;;;;;5061768;28;20110;-73
2021/12/17 13:42:43;;;;;;;6.22;4.30;;;;;;;;;;5065053;28;20053;-74
2021/12/17 13:45:17;;;;;;;6.22;4.68;;;;;;;;;;5064109;28;20115;-73
2021/12/17 13:47:45;;;;;;;9.35;5.10;;;;;;;;;;5063489;28;20487;-74
2021/12/17 13:50:13;;;;;;;9.65;5.43;;;;;;;;;;5092517;28;20688;-73
2021/12/17 13:52:49;;;;;;;7.60;5.28;;;;;;;;;;5064311;28;20126;-73
2021/12/17 13:55:17;;;;;;;7.07;5.07;;;;;;;;;;5089380;28;20490;-73
2021/12/17 13:57:43;;;;;;;6.18;4.80;;;;;;;;;;5036446;28;20059;-73
2021/12/17 14:00:10;;;;;;;7.18;4.80;;;;;;;;;;5054601;28;20044;-73
2021/12/17 14:02:37;;;;;;;7.55;4.82;;;;;;;;;;5053951;28;20040;-74
2021/12/17 14:05:05;;;;;;;5.88;4.15;;;;;;;;;;5059482;28;20605;-74
2021/12/17 14:07:32;;;;;;;5.75;3.90;;;;;;;;;;5058532;28;20036;-73
2021/12/17 14:10:00;;;;;;;8.68;4.65;;;;;;;;;;5052577;28;20494;-74
2021/12/17 14:12:30;;;;;;;5.03;3.58;;;;;;;;;;5055861;28;20045;-73
2021/12/17 14:14:57;;;;;;;6.00;3.83;;;;;;;;;;5054822;28;20048;-73
2021/12/17 14:17:23;;;;;;;7.00;3.88;;;;;;;;;;5071510;28;20048;-73
2021/12/17 14:19:50;;;;;;;5.10;3.80;;;;;;;;;;5043079;28;20060;-73
2021/12/17 14:22:20;;;;;;;6.20;4.35;;;;;;;;;;5056971;28;20040;-74
2021/12/17 14:24:47;;;;;;;5.38;4.28;;;;;;;;;;5055337;28;20055;-73
2021/12/17 14:27:13;;;;;;;5.82;3.88;;;;;;;;;;5060413;28;20028;-73
2021/12/17 14:29:39;;;;;;;5.25;3.97;;;;;;;;;;5056056;28;20040;-73
2021/12/17 14:32:05;;;;;;;6.32;3.53;;;;;;;;;;5042235;28;20178;-73
2021/12/17 14:34:40;;;;;;;5.97;4.10;;;;;;;;;;5056184;28;20060;-73
2021/12/17 14:37:06;;;;;;;6.45;3.90;;;;;;;;;;5059664;28;20055;-73
2021/12/17 14:39:39;;;;;;;7.95;4.57;;;;;;;;;;5057004;28;20084;-74
2021/12/17 14:42:07;;;;;;;7.70;4.50;;;;;;;;;;5058008;28;20045;-73
2021/12/17 14:44:50;;;;;;;7.60;4.13;;;;;;;;;;5052388;28;20835;-74
2021/12/17 14:47:31;;;;;;;;;;;;;;;;;;5057156;28;20045;-73
2021/12/17 15:01:28;;;;;;;6.05;4.50;;;;;;;;;;5050751;28;20495;-73
2021/12/17 15:03:55;;;;;;;9.18;5.60;;;;;;;;;;5058699;28;20572;-73
2021/12/17 15:06:21;;;;;;;10.43;5.15;;;;;;;;;;5058105;28;20037;-74
2021/12/17 15:08:47;;;;;;;9.38;7.05;;;;;;;;;;5094531;28;20033;-74
2021/12/17 15:11:25;;;;;;;11.02;6.60;;;;;;;;;;5062506;28;20498;-74
2021/12/17 15:13:52;;;;;;;9.48;6.72;;;;;;;;;;5063931;28;20128;-74
2021/12/17 15:16:18;;;;;;;8.90;5.50;;;;;;;;;;5060626;28;20059;-73
2021/12/17 15:18:44;;;;;;;9.05;6.43;;;;;;;;;;5062628;28;20051;-74
2021/12/17 15:21:10;;;;;;;7.78;5.80;;;;;;;;;;5060132;28;20801;-74
2021/12/17 15:23:37;;;;;;;7.32;5.18;;;;;;;;;;5093987;27;20561;-73
2021/12/17 15:26:03;;;;;;;9.55;5.28;;;;;;;;;;5063177;28;20135;-73
2021/12/17 15:28:30;;;;;;;6.80;5.38;;;;;;;;;;5064120;28;20525;-74
2021/12/17 15:30:58;;;;;;;7.05;5.05;;;;;;;;;;5095981;27;20133;-74
2021/12/17 15:33:25;;;;;;;9.77;5.95;;;;;;;;;;5058141;28;20114;-74
2021/12/17 15:35:51;;;;;;;7.47;5.53;;;;;;;;;;5058497;28;20048;-74
2021/12/17 15:38:17;;;;;;;8.00;5.60;;;;;;;;;;5057317;28;20458;-73
2021/12/17 15:40:46;;;;;;;7.00;5.68;;;;;;;;;;5057447;28;20102;-74
2021/12/17 15:43:15;;;;;;;9.75;5.40;;;;;;;;;;5057717;28;20045;-74
2021/12/17 15:45:43;;;;;;;10.52;6.78;;;;;;;;;;5053928;28;20041;-74
2021/12/17 15:48:10;;;;;;;9.50;6.03;;;;;;;;;;5063181;28;20052;-73
2021/12/17 15:50:36;;;;;;;12.38;7.07;;;;;;;;;;5045812;28;20043;-74
2021/12/17 15:53:03;;;;;;;7.50;5.20;;;;;;;;;;5056580;28;20076;-74
2021/12/17 15:55:29;;;;;;;9.43;6.03;;;;;;;;;;5058658;28;20097;-75
2021/12/17 15:57:57;;;;;;;9.68;6.22;;;;;;;;;;5059178;28;20048;-74
2021/12/17 16:00:25;;;;;;;7.68;5.95;;;;;;;;;;5061437;28;20048;-75
2021/12/17 16:02:51;;;;;;;8.77;5.95;;;;;;;;;;5095454;28;20040;-75
2021/12/17 16:05:18;;;;;;;8.68;5.63;;;;;;;;;;5055756;28;20040;-74
2021/12/17 16:07:46;;;;;;;8.23;6.15;;;;;;;;;;5064081;28;20051;-75
2021/12/17 16:18:29;;;;;;;10.45;6.72;;;;;;;;;;5060749;28;20056;-74
2021/12/17 16:21:03;;;;;;;12.48;8.02;;;;;;;;;;5055739;28;20052;-75
2021/12/17 16:23:30;;;;;;;11.48;7.82;;;;;;;;;;5060507;28;20054;-74
2021/12/17 16:25:56;;;;;;;13.30;7.47;;;;;;;;;;5057284;28;20047;-74
2021/12/17 16:28:22;;;;;;;9.88;7.03;;;;;;;;;;5060833;28;20441;-74
2021/12/17 16:30:48;;;;;;;11.88;7.10;;;;;;;;;;5062692;28;20036;-74
2021/12/17 16:33:15;;;;;;;13.40;8.65;;;;;;;;;;5058116;28;20049;-74
2021/12/17 16:35:41;;;;;;;11.32;7.85;;;;;;;;;;5059560;28;20453;-74
2021/12/17 16:38:08;;;;;;;14.18;8.57;;;;;;;;;;5063704;28;20040;-74
2021/12/17 16:40:34;;;;;;;13.35;8.45;;;;;;;;;;5061657;28;20456;-74
2021/12/17 16:43:01;;;;;;;14.30;9.13;;;;;;;;;;5062610;28;20044;-75
2021/12/17 16:45:33;;;;;;;9.90;7.68;;;;;;;;;;5090157;28;20069;-74
2021/12/17 16:48:03;;;;;;;13.90;10.27;;;;;;;;;;5096891;27;20171;-74
2021/12/17 16:50:31;;;;;;;14.88;9.38;;;;;;;;;;5065624;28;20048;-74
2021/12/17 16:52:58;;;;;;;14.20;9.10;;;;;;;;;;5092827;27;20048;-74
2021/12/17 16:55:24;;;;;;;12.98;9.75;;;;;;;;;;5064910;28;20398;-75
2021/12/17 16:57:50;;;;;;;22.50;11.10;;;;;;;;;;5062622;28;20075;-74
2021/12/17 17:00:16;;;;;;;13.52;9.45;;;;;;;;;;5055269;28;20084;-75
2021/12/17 17:02:43;;;;;;;14.18;9.82;;;;;;;;;;5081748;28;20051;-74
2021/12/17 17:05:09;;;;;;;14.80;8.90;;;;;;;;;;5062851;28;20525;-74
2021/12/17 17:07:35;;;;;;;17.27;8.77;;;;;;;;;;5061665;28;20486;-74
2021/12/17 17:10:01;;;;;;;15.85;8.60;;;;;;;;;;5059177;28;20514;-74
2021/12/17 17:12:30;;;;;;;14.73;8.75;;;;;;;;;;5063332;28;20048;-74
2021/12/17 17:14:56;;;;;;;11.05;7.85;;;;;;;;;;5026110;28;20085;-74
2021/12/17 17:17:22;;;;;;;10.00;7.38;;;;;;;;;;5059966;28;20047;-74
2021/12/17 17:19:48;;;;;;;9.60;6.32;;;;;;;;;;5056414;28;20040;-74
2021/12/17 17:22:15;;;;;;;8.98;5.35;;;;;;;;;;5061431;28;20052;-74
2021/12/17 17:24:42;;;;;;;5.15;3.90;;;;;;;;;;5060329;28;20055;-74
2021/12/17 17:27:08;;;;;;;6.50;4.43;;;;;;;;;;5057041;28;20044;-74
2021/12/17 17:29:34;;;;;;;6.03;3.58;;;;;;;;;;5059072;28;20127;-74
2021/12/17 17:32:01;;;;;;;6.70;4.07;;;;;;;;;;5059173;28;20048;-74
2021/12/17 17:34:28;;;;;;;6.30;3.67;;;;;;;;;;5061584;28;20056;-74
2021/12/17 17:36:55;;;;;;;7.57;4.60;;;;;;;;;;5062529;28;20056;-74
2021/12/17 17:39:21;;;;;;;5.90;4.35;;;;;;;;;;5061515;28;20039;-74
2021/12/17 17:41:47;;;;;;;9.45;5.28;;;;;;;;;;5058255;28;20283;-74
2021/12/17 17:44:13;;;;;;;6.90;4.45;;;;;;;;;;5060000;28;20187;-73